sensor_id;sensor_type;location;lat;lon;timestamp;P1;durP1;ratioP1;P2;durP2;ratioP2
14096;SDS011;7125;48.106;11.544;2022-08-14T00:02:14;4.70;;;4.30;;
14096;SDS011;7125;48.106;11.544;2022-08-14T00:04:41;4.27;;;3.97;;
14096;SDS011;7125;48.106;11.544;2022-08-14T00:07:08;7.37;;;4.13;;
14096;SDS011;7125;48.106;11.544;2022-08-14T00:09:36;4.40;;;3.83;;
14096;SDS011;7125;48.106;11.544;2022-08-14T00:12:04;6.30;;;4.17;;
14096;SDS011;7125;48.106;11.544;2022-08-14T00:14:31;3.93;;;3.63;;
14096;SDS011;7125;48.106;11.544;2022-08-14T00:17:00;4.80;;;4.30;;
14096;SDS011;7125;48.106;11.544;2022-08-14T00:19:27;4.60;;;4.20;;
14096;SDS011;7125;48.106;11.544;2022-08-14T00:21:53;5.03;;;4.63;;
14096;SDS011;7125;48.106;11.544;2022-08-14T00:24:21;4.77;;;3.93;;
14096;SDS011;7125;48.106;11.544;2022-08-14T00:26:48;4.97;;;4.50;;
14096;SDS011;7125;48.106;11.544;2022-08-14T00:29:15;5.60;;;4.67;;
14096;SDS011;7125;48.106;11.544;2022-08-14T00:31:41;4.17;;;3.80;;
14096;SDS011;7125;48.106;11.544;2022-08-14T00:34:10;5.23;;;4.67;;
14096;SDS011;7125;48.106;11.544;2022-08-14T00:36:36;4.60;;;4.20;;
14096;SDS011;7125;48.106;11.544;2022-08-14T00:39:03;5.07;;;4.67;;
14096;SDS011;7125;48.106;11.544;2022-08-14T00:41:30;4.80;;;4.40;;
14096;SDS011;7125;48.106;11.544;2022-08-14T00:43:58;4.57;;;4.20;;
14096;SDS011;7125;48.106;11.544;2022-08-14T00:46:25;4.07;;;3.53;;
14096;SDS011;7125;48.106;11.544;2022-08-14T00:48:52;6.17;;;4.50;;
14096;SDS011;7125;48.106;11.544;2022-08-14T00:51:20;3.87;;;3.57;;
14096;SDS011;7125;48.106;11.544;2022-08-14T00:53:47;4.77;;;4.37;;
14096;SDS011;7125;48.106;11.544;2022-08-14T00:56:15;4.83;;;4.43;;
14096;SDS011;7125;48.106;11.544;2022-08-14T00:58:42;4.57;;;4.20;;
14096;SDS011;7125;48.106;11.544;2022-08-14T01:01:11;4.50;;;4.10;;
14096;SDS011;7125;48.106;11.544;2022-08-14T01:03:41;5.97;;;4.17;;
14096;SDS011;7125;48.106;11.544;2022-08-14T01:06:08;5.07;;;4.57;;
14096;SDS011;7125;48.106;11.544;2022-08-14T01:08:37;5.23;;;4.83;;
14096;SDS011;7125;48.106;11.544;2022-08-14T01:11:06;4.70;;;4.40;;
14096;SDS011;7125;48.106;11.544;2022-08-14T01:13:34;5.00;;;4.50;;
14096;SDS011;7125;48.106;11.544;2022-08-14T01:16:04;4.33;;;4.03;;
14096;SDS011;7125;48.106;11.544;2022-08-14T01:18:32;4.80;;;4.40;;
14096;SDS011;7125;48.106;11.544;2022-08-14T01:21:21;6.03;;;5.23;;
14096;SDS011;7125;48.106;11.544;2022-08-14T01:23:49;5.37;;;4.87;;
14096;SDS011;7125;48.106;11.544;2022-08-14T01:26:18;6.07;;;4.57;;
14096;SDS011;7125;48.106;11.544;2022-08-14T01:28:48;5.67;;;4.93;;
14096;SDS011;7125;48.106;11.544;2022-08-14T01:31:20;5.00;;;4.60;;
14096;SDS011;7125;48.106;11.544;2022-08-14T01:33:49;6.07;;;4.43;;
14096;SDS011;7125;48.106;11.544;2022-08-14T01:36:22;5.13;;;4.63;;
14096;SDS011;7125;48.106;11.544;2022-08-14T01:38:51;5.07;;;4.60;;
14096;SDS011;7125;48.106;11.544;2022-08-14T01:41:21;4.53;;;4.13;;
14096;SDS011;7125;48.106;11.544;2022-08-14T01:43:49;5.07;;;4.67;;
14096;SDS011;7125;48.106;11.544;2022-08-14T01:46:19;7.10;;;5.13;;
14096;SDS011;7125;48.106;11.544;2022-08-14T01:48:47;5.20;;;4.80;;
14096;SDS011;7125;48.106;11.544;2022-08-14T01:51:16;5.50;;;5.10;;
14096;SDS011;7125;48.106;11.544;2022-08-14T01:53:49;5.63;;;5.13;;
14096;SDS011;7125;48.106;11.544;2022-08-14T01:56:18;6.67;;;6.10;;
14096;SDS011;7125;48.106;11.544;2022-08-14T01:58:47;5.53;;;5.13;;
14096;SDS011;7125;48.106;11.544;2022-08-14T02:01:15;5.67;;;5.10;;
14096;SDS011;7125;48.106;11.544;2022-08-14T02:03:42;7.53;;;5.67;;
14096;SDS011;7125;48.106;11.544;2022-08-14T02:06:10;5.00;;;4.60;;
14096;SDS011;7125;48.106;11.544;2022-08-14T02:08:37;5.83;;;5.33;;
14096;SDS011;7125;48.106;11.544;2022-08-14T02:11:08;4.90;;;4.43;;
14096;SDS011;7125;48.106;11.544;2022-08-14T02:13:43;5.73;;;5.20;;
14096;SDS011;7125;48.106;11.544;2022-08-14T02:16:11;5.67;;;5.27;;
14096;SDS011;7125;48.106;11.544;2022-08-14T02:18:40;5.87;;;5.40;;
14096;SDS011;7125;48.106;11.544;2022-08-14T02:21:08;5.30;;;4.90;;
14096;SDS011;7125;48.106;11.544;2022-08-14T02:23:36;5.37;;;4.87;;
14096;SDS011;7125;48.106;11.544;2022-08-14T02:26:13;5.77;;;5.27;;
14096;SDS011;7125;48.106;11.544;2022-08-14T02:28:44;5.47;;;5.07;;
14096;SDS011;7125;48.106;11.544;2022-08-14T02:31:12;5.90;;;5.40;;
14096;SDS011;7125;48.106;11.544;2022-08-14T02:33:39;5.77;;;5.27;;
14096;SDS011;7125;48.106;11.544;2022-08-14T02:36:07;4.73;;;4.33;;
14096;SDS011;7125;48.106;11.544;2022-08-14T02:38:36;5.20;;;4.70;;
14096;SDS011;7125;48.106;11.544;2022-08-14T02:41:06;4.80;;;4.40;;
14096;SDS011;7125;48.106;11.544;2022-08-14T02:43:36;4.83;;;4.43;;
14096;SDS011;7125;48.106;11.544;2022-08-14T02:46:04;5.83;;;5.23;;
14096;SDS011;7125;48.106;11.544;2022-08-14T02:48:32;5.00;;;4.60;;
14096;SDS011;7125;48.106;11.544;2022-08-14T02:51:01;4.93;;;4.53;;
14096;SDS011;7125;48.106;11.544;2022-08-14T02:53:31;5.37;;;4.87;;
14096;SDS011;7125;48.106;11.544;2022-08-14T02:55:59;5.07;;;4.67;;
14096;SDS011;7125;48.106;11.544;2022-08-14T02:58:26;5.57;;;5.17;;
14096;SDS011;7125;48.106;11.544;2022-08-14T03:00:56;8.43;;;4.97;;
14096;SDS011;7125;48.106;11.544;2022-08-14T03:03:23;5.50;;;5.10;;
14096;SDS011;7125;48.106;11.544;2022-08-14T03:05:50;6.63;;;5.67;;
14096;SDS011;7125;48.106;11.544;2022-08-14T03:08:18;5.27;;;4.77;;
14096;SDS011;7125;48.106;11.544;2022-08-14T03:10:45;8.03;;;4.87;;
14096;SDS011;7125;48.106;11.544;2022-08-14T03:13:12;4.93;;;4.53;;
14096;SDS011;7125;48.106;11.544;2022-08-14T03:15:39;5.37;;;5.00;;
14096;SDS011;7125;48.106;11.544;2022-08-14T03:18:10;4.90;;;4.50;;
14096;SDS011;7125;48.106;11.544;2022-08-14T03:20:38;5.77;;;5.33;;
14096;SDS011;7125;48.106;11.544;2022-08-14T03:23:05;4.60;;;4.27;;
14096;SDS011;7125;48.106;11.544;2022-08-14T03:25:32;5.87;;;4.73;;
14096;SDS011;7125;48.106;11.544;2022-08-14T03:28:03;4.97;;;4.57;;
14096;SDS011;7125;48.106;11.544;2022-08-14T03:30:32;5.67;;;5.17;;
14096;SDS011;7125;48.106;11.544;2022-08-14T03:32:59;5.60;;;4.80;;
14096;SDS011;7125;48.106;11.544;2022-08-14T03:35:28;5.50;;;5.00;;
14096;SDS011;7125;48.106;11.544;2022-08-14T03:37:55;5.53;;;5.03;;
14096;SDS011;7125;48.106;11.544;2022-08-14T03:40:29;5.37;;;4.97;;
14096;SDS011;7125;48.106;11.544;2022-08-14T03:42:56;6.50;;;5.30;;
14096;SDS011;7125;48.106;11.544;2022-08-14T03:45:23;5.13;;;4.73;;
14096;SDS011;7125;48.106;11.544;2022-08-14T03:47:50;9.80;;;5.33;;
14096;SDS011;7125;48.106;11.544;2022-08-14T03:50:16;7.80;;;5.57;;
14096;SDS011;7125;48.106;11.544;2022-08-14T03:52:45;7.63;;;5.77;;
14096;SDS011;7125;48.106;11.544;2022-08-14T03:55:12;6.37;;;5.13;;
14096;SDS011;7125;48.106;11.544;2022-08-14T03:57:39;6.47;;;5.03;;
14096;SDS011;7125;48.106;11.544;2022-08-14T04:00:08;6.87;;;5.63;;
14096;SDS011;7125;48.106;11.544;2022-08-14T04:02:37;5.20;;;4.70;;
14096;SDS011;7125;48.106;11.544;2022-08-14T04:05:05;5.37;;;4.73;;
14096;SDS011;7125;48.106;11.544;2022-08-14T04:07:33;5.50;;;5.10;;
14096;SDS011;7125;48.106;11.544;2022-08-14T04:10:05;5.17;;;4.77;;
14096;SDS011;7125;48.106;11.544;2022-08-14T04:12:32;7.07;;;4.67;;
14096;SDS011;7125;48.106;11.544;2022-08-14T04:15:00;5.27;;;4.43;;
14096;SDS011;7125;48.106;11.544;2022-08-14T04:17:26;5.33;;;4.00;;
14096;SDS011;7125;48.106;11.544;2022-08-14T04:19:54;4.93;;;4.47;;
14096;SDS011;7125;48.106;11.544;2022-08-14T04:22:21;5.37;;;4.97;;
14096;SDS011;7125;48.106;11.544;2022-08-14T04:24:48;5.47;;;4.43;;
14096;SDS011;7125;48.106;11.544;2022-08-14T04:27:18;5.70;;;4.60;;
14096;SDS011;7125;48.106;11.544;2022-08-14T04:29:45;6.27;;;4.87;;
14096;SDS011;7125;48.106;11.544;2022-08-14T04:32:12;5.93;;;4.60;;
14096;SDS011;7125;48.106;11.544;2022-08-14T04:34:40;5.67;;;4.57;;
14096;SDS011;7125;48.106;11.544;2022-08-14T04:37:06;5.67;;;4.40;;
14096;SDS011;7125;48.106;11.544;2022-08-14T04:39:52;4.40;;;4.03;;
14096;SDS011;7125;48.106;11.544;2022-08-14T04:42:39;4.40;;;4.00;;
14096;SDS011;7125;48.106;11.544;2022-08-14T04:45:24;5.17;;;4.70;;
14096;SDS011;7125;48.106;11.544;2022-08-14T04:48:00;5.30;;;4.90;;
14096;SDS011;7125;48.106;11.544;2022-08-14T04:50:40;4.67;;;4.30;;
14096;SDS011;7125;48.106;11.544;2022-08-14T04:53:09;5.07;;;4.67;;
14096;SDS011;7125;48.106;11.544;2022-08-14T04:55:37;4.50;;;4.20;;
14096;SDS011;7125;48.106;11.544;2022-08-14T04:58:05;5.03;;;4.60;;
14096;SDS011;7125;48.106;11.544;2022-08-14T05:00:33;6.37;;;4.70;;
14096;SDS011;7125;48.106;11.544;2022-08-14T05:03:00;5.13;;;4.67;;
14096;SDS011;7125;48.106;11.544;2022-08-14T05:05:28;4.60;;;4.23;;
14096;SDS011;7125;48.106;11.544;2022-08-14T05:07:55;4.00;;;3.70;;
14096;SDS011;7125;48.106;11.544;2022-08-14T05:10:30;4.10;;;3.80;;
14096;SDS011;7125;48.106;11.544;2022-08-14T05:12:57;4.80;;;4.40;;
14096;SDS011;7125;48.106;11.544;2022-08-14T05:15:25;4.23;;;3.93;;
14096;SDS011;7125;48.106;11.544;2022-08-14T05:17:53;5.13;;;4.60;;
14096;SDS011;7125;48.106;11.544;2022-08-14T05:20:20;4.67;;;4.23;;
14096;SDS011;7125;48.106;11.544;2022-08-14T05:22:48;4.97;;;4.57;;
14096;SDS011;7125;48.106;11.544;2022-08-14T05:25:15;5.07;;;3.87;;
14096;SDS011;7125;48.106;11.544;2022-08-14T05:27:42;4.33;;;4.03;;
14096;SDS011;7125;48.106;11.544;2022-08-14T05:30:09;7.97;;;4.53;;
14096;SDS011;7125;48.106;11.544;2022-08-14T05:32:40;4.30;;;3.90;;
14096;SDS011;7125;48.106;11.544;2022-08-14T05:35:07;4.67;;;4.27;;
14096;SDS011;7125;48.106;11.544;2022-08-14T05:37:35;7.93;;;4.83;;
14096;SDS011;7125;48.106;11.544;2022-08-14T05:40:04;4.40;;;4.10;;
14096;SDS011;7125;48.106;11.544;2022-08-14T05:42:33;4.47;;;4.10;;
14096;SDS011;7125;48.106;11.544;2022-08-14T05:45:02;3.17;;;2.97;;
14096;SDS011;7125;48.106;11.544;2022-08-14T05:47:31;4.23;;;3.93;;
14096;SDS011;7125;48.106;11.544;2022-08-14T05:50:00;3.57;;;3.37;;
14096;SDS011;7125;48.106;11.544;2022-08-14T05:52:27;4.50;;;4.07;;
14096;SDS011;7125;48.106;11.544;2022-08-14T05:54:55;3.67;;;3.37;;
14096;SDS011;7125;48.106;11.544;2022-08-14T05:57:22;3.80;;;3.60;;
14096;SDS011;7125;48.106;11.544;2022-08-14T05:59:49;4.30;;;3.73;;
14096;SDS011;7125;48.106;11.544;2022-08-14T06:02:16;3.73;;;3.43;;
14096;SDS011;7125;48.106;11.544;2022-08-14T06:04:43;3.67;;;3.37;;
14096;SDS011;7125;48.106;11.544;2022-08-14T06:07:13;3.80;;;3.50;;
14096;SDS011;7125;48.106;11.544;2022-08-14T06:09:40;3.47;;;3.27;;
14096;SDS011;7125;48.106;11.544;2022-08-14T06:12:07;4.73;;;4.37;;
14096;SDS011;7125;48.106;11.544;2022-08-14T06:14:34;4.07;;;3.70;;
14096;SDS011;7125;48.106;11.544;2022-08-14T06:17:01;4.03;;;3.63;;
14096;SDS011;7125;48.106;11.544;2022-08-14T06:19:28;3.72;;;3.53;;
14096;SDS011;7125;48.106;11.544;2022-08-14T06:21:55;4.07;;;3.77;;
14096;SDS011;7125;48.106;11.544;2022-08-14T06:24:23;4.32;;;3.92;;
14096;SDS011;7125;48.106;11.544;2022-08-14T06:26:50;5.20;;;4.80;;
14096;SDS011;7125;48.106;11.544;2022-08-14T06:29:17;3.30;;;3.10;;
14096;SDS011;7125;48.106;11.544;2022-08-14T06:31:43;4.47;;;3.22;;
14096;SDS011;7125;48.106;11.544;2022-08-14T06:34:11;4.00;;;3.60;;
14096;SDS011;7125;48.106;11.544;2022-08-14T06:36:38;3.55;;;3.25;;
14096;SDS011;7125;48.106;11.544;2022-08-14T06:39:05;4.18;;;3.20;;
14096;SDS011;7125;48.106;11.544;2022-08-14T06:41:33;3.42;;;3.08;;
14096;SDS011;7125;48.106;11.544;2022-08-14T06:44:00;3.53;;;3.33;;
14096;SDS011;7125;48.106;11.544;2022-08-14T06:46:27;4.72;;;3.78;;
14096;SDS011;7125;48.106;11.544;2022-08-14T06:48:55;3.38;;;3.13;;
14096;SDS011;7125;48.106;11.544;2022-08-14T06:51:21;3.60;;;3.40;;
14096;SDS011;7125;48.106;11.544;2022-08-14T06:53:48;5.38;;;3.17;;
14096;SDS011;7125;48.106;11.544;2022-08-14T06:56:15;3.80;;;3.03;;
14096;SDS011;7125;48.106;11.544;2022-08-14T06:58:43;4.80;;;3.00;;
14096;SDS011;7125;48.106;11.544;2022-08-14T07:01:10;3.42;;;3.15;;
14096;SDS011;7125;48.106;11.544;2022-08-14T07:03:55;3.38;;;3.15;;
14096;SDS011;7125;48.106;11.544;2022-08-14T07:06:39;2.95;;;2.75;;
14096;SDS011;7125;48.106;11.544;2022-08-14T07:09:08;3.05;;;2.85;;
14096;SDS011;7125;48.106;11.544;2022-08-14T07:11:36;2.92;;;2.72;;
14096;SDS011;7125;48.106;11.544;2022-08-14T07:14:04;2.97;;;2.78;;
14096;SDS011;7125;48.106;11.544;2022-08-14T07:16:31;3.38;;;2.80;;
14096;SDS011;7125;48.106;11.544;2022-08-14T07:18:58;2.92;;;2.72;;
14096;SDS011;7125;48.106;11.544;2022-08-14T07:21:25;2.83;;;2.63;;
14096;SDS011;7125;48.106;11.544;2022-08-14T07:23:51;2.95;;;2.75;;
14096;SDS011;7125;48.106;11.544;2022-08-14T07:26:18;2.70;;;2.47;;
14096;SDS011;7125;48.106;11.544;2022-08-14T07:28:45;2.70;;;2.50;;
14096;SDS011;7125;48.106;11.544;2022-08-14T07:31:13;3.10;;;2.90;;
14096;SDS011;7125;48.106;11.544;2022-08-14T07:33:41;2.90;;;2.67;;
14096;SDS011;7125;48.106;11.544;2022-08-14T07:36:10;3.15;;;2.85;;
14096;SDS011;7125;48.106;11.544;2022-08-14T07:38:38;3.03;;;2.83;;
14096;SDS011;7125;48.106;11.544;2022-08-14T07:41:06;3.78;;;3.05;;
14096;SDS011;7125;48.106;11.544;2022-08-14T07:43:34;3.03;;;2.75;;
14096;SDS011;7125;48.106;11.544;2022-08-14T07:46:02;4.15;;;2.85;;
14096;SDS011;7125;48.106;11.544;2022-08-14T07:48:35;3.13;;;2.83;;
14096;SDS011;7125;48.106;11.544;2022-08-14T07:51:04;3.88;;;3.55;;
14096;SDS011;7125;48.106;11.544;2022-08-14T07:53:31;4.05;;;3.10;;
14096;SDS011;7125;48.106;11.544;2022-08-14T07:55:58;3.00;;;2.80;;
14096;SDS011;7125;48.106;11.544;2022-08-14T07:58:25;3.60;;;3.05;;
14096;SDS011;7125;48.106;11.544;2022-08-14T08:00:53;3.55;;;3.13;;
14096;SDS011;7125;48.106;11.544;2022-08-14T08:03:21;2.70;;;2.50;;
14096;SDS011;7125;48.106;11.544;2022-08-14T08:05:50;2.70;;;2.53;;
14096;SDS011;7125;48.106;11.544;2022-08-14T08:08:17;2.70;;;2.50;;
14096;SDS011;7125;48.106;11.544;2022-08-14T08:10:46;2.53;;;2.28;;
14096;SDS011;7125;48.106;11.544;2022-08-14T08:13:14;3.05;;;2.75;;
14096;SDS011;7125;48.106;11.544;2022-08-14T08:15:42;2.75;;;2.55;;
14096;SDS011;7125;48.106;11.544;2022-08-14T08:18:11;3.38;;;3.15;;
14096;SDS011;7125;48.106;11.544;2022-08-14T08:20:40;4.05;;;3.28;;
14096;SDS011;7125;48.106;11.544;2022-08-14T08:23:11;3.38;;;2.75;;
14096;SDS011;7125;48.106;11.544;2022-08-14T08:25:39;3.20;;;3.00;;
14096;SDS011;7125;48.106;11.544;2022-08-14T08:28:08;2.80;;;2.60;;
14096;SDS011;7125;48.106;11.544;2022-08-14T08:30:37;2.40;;;2.30;;
14096;SDS011;7125;48.106;11.544;2022-08-14T08:33:05;3.45;;;3.17;;
14096;SDS011;7125;48.106;11.544;2022-08-14T08:35:34;5.15;;;2.75;;
14096;SDS011;7125;48.106;11.544;2022-08-14T08:38:04;8.65;;;2.80;;
14096;SDS011;7125;48.106;11.544;2022-08-14T08:40:34;3.55;;;2.88;;
14096;SDS011;7125;48.106;11.544;2022-08-14T08:43:03;3.53;;;3.03;;
14096;SDS011;7125;48.106;11.544;2022-08-14T08:45:32;3.45;;;2.70;;
14096;SDS011;7125;48.106;11.544;2022-08-14T08:48:01;3.17;;;2.97;;
14096;SDS011;7125;48.106;11.544;2022-08-14T08:50:29;6.93;;;2.88;;
14096;SDS011;7125;48.106;11.544;2022-08-14T08:52:59;3.42;;;3.13;;
14096;SDS011;7125;48.106;11.544;2022-08-14T08:55:27;3.00;;;2.80;;
14096;SDS011;7125;48.106;11.544;2022-08-14T08:58:01;2.97;;;2.45;;
14096;SDS011;7125;48.106;11.544;2022-08-14T09:00:30;2.85;;;2.65;;
14096;SDS011;7125;48.106;11.544;2022-08-14T09:03:00;4.10;;;3.80;;
14096;SDS011;7125;48.106;11.544;2022-08-14T09:05:30;6.20;;;3.25;;
14096;SDS011;7125;48.106;11.544;2022-08-14T09:08:08;3.22;;;2.92;;
14096;SDS011;7125;48.106;11.544;2022-08-14T09:10:36;2.90;;;2.70;;
14096;SDS011;7125;48.106;11.544;2022-08-14T09:13:04;5.50;;;3.25;;
14096;SDS011;7125;48.106;11.544;2022-08-14T09:15:31;3.40;;;3.20;;
14096;SDS011;7125;48.106;11.544;2022-08-14T09:17:58;4.75;;;2.95;;
14096;SDS011;7125;48.106;11.544;2022-08-14T09:20:26;4.10;;;2.97;;
14096;SDS011;7125;48.106;11.544;2022-08-14T09:22:53;6.60;;;3.13;;
14096;SDS011;7125;48.106;11.544;2022-08-14T09:25:20;2.85;;;2.65;;
14096;SDS011;7125;48.106;11.544;2022-08-14T09:27:47;4.40;;;3.28;;
14096;SDS011;7125;48.106;11.544;2022-08-14T09:30:15;3.28;;;3.00;;
14096;SDS011;7125;48.106;11.544;2022-08-14T09:32:44;3.28;;;3.03;;
14096;SDS011;7125;48.106;11.544;2022-08-14T09:35:29;3.33;;;3.10;;
14096;SDS011;7125;48.106;11.544;2022-08-14T09:38:10;3.13;;;2.92;;
14096;SDS011;7125;48.106;11.544;2022-08-14T09:40:51;6.78;;;3.90;;
14096;SDS011;7125;48.106;11.544;2022-08-14T09:43:32;3.58;;;3.28;;
14096;SDS011;7125;48.106;11.544;2022-08-14T09:46:08;3.22;;;3.03;;
14096;SDS011;7125;48.106;11.544;2022-08-14T09:48:36;3.30;;;2.85;;
14096;SDS011;7125;48.106;11.544;2022-08-14T09:51:03;3.92;;;3.20;;
14096;SDS011;7125;48.106;11.544;2022-08-14T09:53:36;3.28;;;3.03;;
14096;SDS011;7125;48.106;11.544;2022-08-14T09:56:06;2.78;;;2.65;;
14096;SDS011;7125;48.106;11.544;2022-08-14T09:58:37;3.72;;;2.92;;
14096;SDS011;7125;48.106;11.544;2022-08-14T10:01:10;3.10;;;2.90;;
14096;SDS011;7125;48.106;11.544;2022-08-14T10:03:46;5.93;;;3.58;;
14096;SDS011;7125;48.106;11.544;2022-08-14T10:06:14;3.38;;;3.17;;
14096;SDS011;7125;48.106;11.544;2022-08-14T10:08:43;3.08;;;2.88;;
14096;SDS011;7125;48.106;11.544;2022-08-14T10:11:13;3.55;;;3.28;;
14096;SDS011;7125;48.106;11.544;2022-08-14T10:13:44;3.70;;;3.40;;
14096;SDS011;7125;48.106;11.544;2022-08-14T10:16:17;4.03;;;3.28;;
14096;SDS011;7125;48.106;11.544;2022-08-14T10:18:44;7.65;;;3.10;;
14096;SDS011;7125;48.106;11.544;2022-08-14T10:21:16;3.75;;;3.45;;
14096;SDS011;7125;48.106;11.544;2022-08-14T10:23:44;3.38;;;3.17;;
14096;SDS011;7125;48.106;11.544;2022-08-14T10:26:18;3.20;;;2.97;;
14096;SDS011;7125;48.106;11.544;2022-08-14T10:28:46;3.17;;;2.95;;
14096;SDS011;7125;48.106;11.544;2022-08-14T10:31:15;3.13;;;2.75;;
14096;SDS011;7125;48.106;11.544;2022-08-14T10:33:56;5.25;;;2.92;;
14096;SDS011;7125;48.106;11.544;2022-08-14T10:36:25;3.65;;;3.45;;
14096;SDS011;7125;48.106;11.544;2022-08-14T10:38:57;3.25;;;3.05;;
14096;SDS011;7125;48.106;11.544;2022-08-14T10:41:33;3.20;;;3.00;;
14096;SDS011;7125;48.106;11.544;2022-08-14T10:44:05;3.33;;;3.13;;
14096;SDS011;7125;48.106;11.544;2022-08-14T10:46:39;3.38;;;3.17;;
14096;SDS011;7125;48.106;11.544;2022-08-14T10:49:14;3.08;;;2.88;;
14096;SDS011;7125;48.106;11.544;2022-08-14T10:51:53;2.60;;;2.40;;
14096;SDS011;7125;48.106;11.544;2022-08-14T10:54:31;3.53;;;3.22;;
14096;SDS011;7125;48.106;11.544;2022-08-14T10:57:13;3.88;;;3.50;;
14096;SDS011;7125;48.106;11.544;2022-08-14T10:59:46;3.63;;;3.33;;
14096;SDS011;7125;48.106;11.544;2022-08-14T11:02:26;7.70;;;2.90;;
14096;SDS011;7125;48.106;11.544;2022-08-14T11:05:02;2.33;;;2.22;;
14096;SDS011;7125;48.106;11.544;2022-08-14T11:07:31;2.97;;;2.78;;
14096;SDS011;7125;48.106;11.544;2022-08-14T11:10:00;3.35;;;3.15;;
14096;SDS011;7125;48.106;11.544;2022-08-14T11:12:37;2.97;;;2.72;;
14096;SDS011;7125;48.106;11.544;2022-08-14T11:15:11;3.40;;;2.50;;
14096;SDS011;7125;48.106;11.544;2022-08-14T11:17:40;3.58;;;3.35;;
14096;SDS011;7125;48.106;11.544;2022-08-14T11:20:07;3.13;;;2.90;;
14096;SDS011;7125;48.106;11.544;2022-08-14T11:22:36;2.83;;;2.63;;
14096;SDS011;7125;48.106;11.544;2022-08-14T11:25:06;2.90;;;2.70;;
14096;SDS011;7125;48.106;11.544;2022-08-14T11:27:34;2.80;;;2.60;;
14096;SDS011;7125;48.106;11.544;2022-08-14T11:30:04;2.45;;;2.35;;
14096;SDS011;7125;48.106;11.544;2022-08-14T11:32:33;2.65;;;2.55;;
14096;SDS011;7125;48.106;11.544;2022-08-14T11:35:01;2.40;;;2.20;;
14096;SDS011;7125;48.106;11.544;2022-08-14T11:37:29;2.70;;;2.50;;
14096;SDS011;7125;48.106;11.544;2022-08-14T11:39:58;2.90;;;2.63;;
14096;SDS011;7125;48.106;11.544;2022-08-14T11:42:26;2.80;;;2.60;;
14096;SDS011;7125;48.106;11.544;2022-08-14T11:44:55;2.75;;;2.55;;
14096;SDS011;7125;48.106;11.544;2022-08-14T11:47:23;2.67;;;2.53;;
14096;SDS011;7125;48.106;11.544;2022-08-14T11:49:50;3.03;;;2.55;;
14096;SDS011;7125;48.106;11.544;2022-08-14T11:52:18;2.50;;;2.40;;
14096;SDS011;7125;48.106;11.544;2022-08-14T11:54:45;2.65;;;2.45;;
14096;SDS011;7125;48.106;11.544;2022-08-14T11:57:22;2.88;;;2.67;;
14096;SDS011;7125;48.106;11.544;2022-08-14T11:59:58;2.50;;;2.40;;
14096;SDS011;7125;48.106;11.544;2022-08-14T12:02:29;3.58;;;3.13;;
14096;SDS011;7125;48.106;11.544;2022-08-14T12:04:56;2.30;;;2.20;;
14096;SDS011;7125;48.106;11.544;2022-08-14T12:07:24;2.22;;;2.13;;
14096;SDS011;7125;48.106;11.544;2022-08-14T12:09:51;2.42;;;2.20;;
14096;SDS011;7125;48.106;11.544;2022-08-14T12:12:20;2.42;;;2.22;;
14096;SDS011;7125;48.106;11.544;2022-08-14T12:14:48;2.28;;;2.17;;
14096;SDS011;7125;48.106;11.544;2022-08-14T12:17:17;2.20;;;2.10;;
14096;SDS011;7125;48.106;11.544;2022-08-14T12:19:45;2.20;;;2.10;;
14096;SDS011;7125;48.106;11.544;2022-08-14T12:22:14;2.45;;;2.33;;
14096;SDS011;7125;48.106;11.544;2022-08-14T12:24:42;6.72;;;2.47;;
14096;SDS011;7125;48.106;11.544;2022-08-14T12:27:09;5.05;;;2.53;;
14096;SDS011;7125;48.106;11.544;2022-08-14T12:29:38;2.17;;;2.08;;
14096;SDS011;7125;48.106;11.544;2022-08-14T12:32:15;2.22;;;2.13;;
14096;SDS011;7125;48.106;11.544;2022-08-14T12:34:42;2.15;;;2.05;;
14096;SDS011;7125;48.106;11.544;2022-08-14T12:37:16;3.45;;;2.42;;
14096;SDS011;7125;48.106;11.544;2022-08-14T12:39:45;2.28;;;2.17;;
14096;SDS011;7125;48.106;11.544;2022-08-14T12:42:11;2.78;;;2.40;;
14096;SDS011;7125;48.106;11.544;2022-08-14T12:44:40;2.15;;;2.05;;
14096;SDS011;7125;48.106;11.544;2022-08-14T12:47:08;2.10;;;2.00;;
14096;SDS011;7125;48.106;11.544;2022-08-14T12:49:46;2.30;;;2.20;;
14096;SDS011;7125;48.106;11.544;2022-08-14T12:52:25;2.45;;;2.25;;
14096;SDS011;7125;48.106;11.544;2022-08-14T12:54:57;3.38;;;2.40;;
14096;SDS011;7125;48.106;11.544;2022-08-14T12:57:32;2.72;;;2.53;;
14096;SDS011;7125;48.106;11.544;2022-08-14T13:00:04;3.10;;;2.90;;
14096;SDS011;7125;48.106;11.544;2022-08-14T13:02:35;2.65;;;2.45;;
14096;SDS011;7125;48.106;11.544;2022-08-14T13:05:05;2.60;;;2.40;;
14096;SDS011;7125;48.106;11.544;2022-08-14T13:07:33;2.65;;;2.55;;
14096;SDS011;7125;48.106;11.544;2022-08-14T13:10:03;2.80;;;2.60;;
14096;SDS011;7125;48.106;11.544;2022-08-14T13:12:30;3.03;;;2.78;;
14096;SDS011;7125;48.106;11.544;2022-08-14T13:14:58;3.03;;;2.83;;
14096;SDS011;7125;48.106;11.544;2022-08-14T13:17:25;2.50;;;2.30;;
14096;SDS011;7125;48.106;11.544;2022-08-14T13:19:54;2.40;;;2.30;;
14096;SDS011;7125;48.106;11.544;2022-08-14T13:22:23;2.30;;;2.20;;
14096;SDS011;7125;48.106;11.544;2022-08-14T13:24:52;2.13;;;2.00;;
14096;SDS011;7125;48.106;11.544;2022-08-14T13:27:20;2.38;;;2.17;;
14096;SDS011;7125;48.106;11.544;2022-08-14T13:29:49;2.00;;;1.90;;
14096;SDS011;7125;48.106;11.544;2022-08-14T13:32:17;3.17;;;2.30;;
14096;SDS011;7125;48.106;11.544;2022-08-14T13:34:46;2.58;;;2.30;;
14096;SDS011;7125;48.106;11.544;2022-08-14T13:37:13;2.80;;;2.60;;
14096;SDS011;7125;48.106;11.544;2022-08-14T13:39:43;5.22;;;2.25;;
14096;SDS011;7125;48.106;11.544;2022-08-14T13:42:12;2.55;;;2.38;;
14096;SDS011;7125;48.106;11.544;2022-08-14T13:44:42;2.28;;;2.13;;
14096;SDS011;7125;48.106;11.544;2022-08-14T13:47:10;2.40;;;2.20;;
14096;SDS011;7125;48.106;11.544;2022-08-14T13:49:38;2.58;;;2.28;;
14096;SDS011;7125;48.106;11.544;2022-08-14T13:52:06;2.45;;;2.25;;
14096;SDS011;7125;48.106;11.544;2022-08-14T13:54:36;2.30;;;2.20;;
14096;SDS011;7125;48.106;11.544;2022-08-14T13:57:06;2.25;;;2.15;;
14096;SDS011;7125;48.106;11.544;2022-08-14T13:59:36;2.30;;;2.20;;
14096;SDS011;7125;48.106;11.544;2022-08-14T14:02:09;2.30;;;2.10;;
14096;SDS011;7125;48.106;11.544;2022-08-14T14:04:38;2.60;;;2.42;;
14096;SDS011;7125;48.106;11.544;2022-08-14T14:07:08;2.60;;;2.40;;
14096;SDS011;7125;48.106;11.544;2022-08-14T14:09:38;2.70;;;2.50;;
14096;SDS011;7125;48.106;11.544;2022-08-14T14:12:06;2.70;;;1.70;;
14096;SDS011;7125;48.106;11.544;2022-08-14T14:14:34;2.13;;;1.92;;
14096;SDS011;7125;48.106;11.544;2022-08-14T14:17:02;2.53;;;2.42;;
14096;SDS011;7125;48.106;11.544;2022-08-14T14:19:31;3.03;;;2.83;;
14096;SDS011;7125;48.106;11.544;2022-08-14T14:21:59;3.33;;;3.08;;
14096;SDS011;7125;48.106;11.544;2022-08-14T14:24:26;3.00;;;2.80;;
14096;SDS011;7125;48.106;11.544;2022-08-14T14:26:53;3.08;;;2.88;;
14096;SDS011;7125;48.106;11.544;2022-08-14T14:29:26;3.47;;;3.22;;
14096;SDS011;7125;48.106;11.544;2022-08-14T14:31:55;3.72;;;3.53;;
14096;SDS011;7125;48.106;11.544;2022-08-14T14:34:25;4.75;;;3.55;;
14096;SDS011;7125;48.106;11.544;2022-08-14T14:36:54;4.70;;;3.25;;
14096;SDS011;7125;48.106;11.544;2022-08-14T14:39:29;4.47;;;3.38;;
14096;SDS011;7125;48.106;11.544;2022-08-14T14:41:57;3.33;;;3.08;;
14096;SDS011;7125;48.106;11.544;2022-08-14T14:44:25;3.95;;;3.65;;
14096;SDS011;7125;48.106;11.544;2022-08-14T14:46:58;3.13;;;2.95;;
14096;SDS011;7125;48.106;11.544;2022-08-14T14:49:25;3.63;;;3.42;;
14096;SDS011;7125;48.106;11.544;2022-08-14T14:51:54;4.30;;;3.15;;
14096;SDS011;7125;48.106;11.544;2022-08-14T14:54:21;3.58;;;3.35;;
14096;SDS011;7125;48.106;11.544;2022-08-14T14:56:48;3.72;;;3.40;;
14096;SDS011;7125;48.106;11.544;2022-08-14T14:59:16;3.75;;;3.13;;
14096;SDS011;7125;48.106;11.544;2022-08-14T15:01:45;3.95;;;3.50;;